Time;durP1;ratioP1;P1;durP2;ratioP2;P2;SDS_P1;SDS_P2;PMS_P1;PMS_P2;Temp;Humidity;BMP_temperature;BMP_pressure;BME280_temperature;BME280_humidity;BME280_pressure;Samples;Min_cycle;Max_cycle;Signal;HPM_P1;HPM_P2
2022/09/13 00:02:27;;;;;;;2.20;1.10;;;;;;;;;;10295623;28;20090;-78
2022/09/13 00:07:30;;;;;;;0.95;0.73;;;;;;;;;;10295327;28;20051;-78
2022/09/13 00:12:33;;;;;;;1.02;0.90;;;;;;;;;;10294757;28;20039;-78
2022/09/13 00:17:38;;;;;;;1.33;0.90;;;;;;;;;;10293616;28;20062;-78
2022/09/13 00:22:41;;;;;;;2.15;1.10;;;;;;;;;;10294044;28;20411;-78
2022/09/13 00:27:45;;;;;;;2.05;1.05;;;;;;;;;;10275935;28;20047;-78
2022/09/13 00:32:50;;;;;;;0.82;0.80;;;;;;;;;;10292964;28;20074;-78
2022/09/13 00:37:53;;;;;;;1.33;0.85;;;;;;;;;;10274851;28;20058;-77
2022/09/13 00:42:56;;;;;;;1.10;0.90;;;;;;;;;;10292034;28;20077;-78
2022/09/13 00:48:05;;;;;;;1.55;0.90;;;;;;;;;;10275262;28;20531;-77
2022/09/13 00:53:11;;;;;;;3.88;1.10;;;;;;;;;;10274629;28;20124;-78
2022/09/13 00:58:20;;;;;;;1.52;0.73;;;;;;;;;;10291317;28;20049;-77
2022/09/13 01:03:28;;;;;;;0.98;0.88;;;;;;;;;;10272660;28;20039;-78
2022/09/13 01:08:32;;;;;;;1.13;1.00;;;;;;;;;;10270312;28;20042;-78
2022/09/13 01:13:36;;;;;;;0.75;0.75;;;;;;;;;;10287793;28;20046;-79
2022/09/13 01:18:42;;;;;;;0.95;0.95;;;;;;;;;;10287131;28;20049;-77
2022/09/13 01:24:12;;;;;;;2.57;0.80;;;;;;;;;;10270583;28;20047;-79
2022/09/13 01:29:52;;;;;;;2.63;0.98;;;;;;;;;;10267918;28;20067;-79
2022/09/13 01:35:06;;;;;;;1.88;0.90;;;;;;;;;;10285774;28;20050;-77
2022/09/13 01:40:18;;;;;;;2.20;0.95;;;;;;;;;;10258804;28;20042;-78
2022/09/13 01:45:29;;;;;;;1.30;1.10;;;;;;;;;;10284978;28;20053;-79
2022/09/13 01:50:41;;;;;;;1.17;1.08;;;;;;;;;;10287109;28;20042;-78
2022/09/13 01:55:50;;;;;;;0.80;0.77;;;;;;;;;;10263364;28;20424;-78
2022/09/13 02:01:01;;;;;;;3.53;1.30;;;;;;;;;;10287087;28;20051;-78
2022/09/13 02:06:11;;;;;;;0.90;0.77;;;;;;;;;;10268955;28;20383;-79
2022/09/13 02:11:17;;;;;;;0.93;0.82;;;;;;;;;;10268518;28;20062;-79
2022/09/13 02:16:27;;;;;;;1.00;0.95;;;;;;;;;;10268733;28;20053;-78
2022/09/13 02:21:38;;;;;;;0.68;0.68;;;;;;;;;;10268433;28;20046;-78
2022/09/13 02:26:44;;;;;;;2.95;1.05;;;;;;;;;;10278448;28;20047;-78
2022/09/13 02:31:55;;;;;;;1.25;1.00;;;;;;;;;;10267991;28;20121;-77
2022/09/13 02:37:02;;;;;;;0.70;0.70;;;;;;;;;;10268241;28;20050;-78
2022/09/13 02:42:12;;;;;;;1.40;0.90;;;;;;;;;;10283732;28;20054;-78
2022/09/13 02:47:30;;;;;;;0.80;0.80;;;;;;;;;;10285390;28;20499;-77
2022/09/13 02:52:46;;;;;;;0.80;0.70;;;;;;;;;;10268366;28;20133;-78
2022/09/13 02:58:03;;;;;;;1.00;1.00;;;;;;;;;;10279246;28;20570;-79
2022/09/13 03:03:09;;;;;;;2.17;0.87;;;;;;;;;;10267603;28;20045;-79
2022/09/13 03:08:16;;;;;;;1.13;1.02;;;;;;;;;;10267075;28;20051;-77
2022/09/13 03:13:34;;;;;;;1.25;1.02;;;;;;;;;;10267573;28;20130;-78
2022/09/13 03:18:51;;;;;;;1.85;0.80;;;;;;;;;;10277096;28;20074;-79
2022/09/13 03:24:07;;;;;;;0.85;0.85;;;;;;;;;;10267511;28;20047;-78
2022/09/13 03:29:30;;;;;;;1.98;1.00;;;;;;;;;;10274339;28;20039;-78
2022/09/13 03:34:43;;;;;;;2.63;0.80;;;;;;;;;;10291252;28;20038;-77
2022/09/13 03:39:53;;;;;;;3.30;1.20;;;;;;;;;;10259912;28;20050;-79
2022/09/13 03:44:57;;;;;;;0.75;0.63;;;;;;;;;;10283226;28;20058;-78
2022/09/13 03:50:01;;;;;;;2.30;0.95;;;;;;;;;;10273711;28;20038;-78
2022/09/13 03:55:06;;;;;;;1.10;0.90;;;;;;;;;;10273921;28;20439;-77
2022/09/13 04:00:13;;;;;;;1.23;1.00;;;;;;;;;;10273605;28;20043;-77
2022/09/13 04:05:16;;;;;;;1.40;1.00;;;;;;;;;;10273615;28;20039;-79
2022/09/13 04:10:23;;;;;;;0.57;0.52;;;;;;;;;;10291064;28;20043;-79
2022/09/13 04:15:26;;;;;;;1.00;0.90;;;;;;;;;;10274052;28;20114;-78
2022/09/13 04:20:30;;;;;;;1.45;0.90;;;;;;;;;;10290530;28;20068;-78
2022/09/13 04:25:38;;;;;;;1.42;0.98;;;;;;;;;;10273625;28;20500;-78
2022/09/13 04:30:44;;;;;;;2.85;1.10;;;;;;;;;;10289948;28;20035;-79
2022/09/13 04:35:55;;;;;;;1.40;1.30;;;;;;;;;;10273399;28;20074;-80
2022/09/13 04:40:59;;;;;;;1.05;0.95;;;;;;;;;;10272647;28;20069;-79
2022/09/13 04:46:03;;;;;;;1.45;0.75;;;;;;;;;;10290430;28;20133;-79
2022/09/13 04:51:06;;;;;;;1.45;0.90;;;;;;;;;;10289474;28;20043;-79
2022/09/13 04:56:13;;;;;;;1.92;1.30;;;;;;;;;;10289317;28;20055;-79
2022/09/13 05:01:17;;;;;;;2.13;0.80;;;;;;;;;;10272306;28;20047;-78
2022/09/13 05:06:23;;;;;;;5.28;1.38;;;;;;;;;;10288935;28;20110;-79
2022/09/13 05:11:29;;;;;;;2.87;1.17;;;;;;;;;;10288331;28;20035;-78
2022/09/13 05:16:33;;;;;;;1.38;1.02;;;;;;;;;;10288254;28;20047;-78
2022/09/13 05:21:39;;;;;;;0.90;0.90;;;;;;;;;;10270892;28;20049;-79
2022/09/13 05:26:44;;;;;;;1.40;0.80;;;;;;;;;;10286118;28;20051;-77
2022/09/13 05:31:47;;;;;;;1.52;1.00;;;;;;;;;;10269937;28;20101;-78
2022/09/13 05:36:50;;;;;;;2.92;0.80;;;;;;;;;;10269810;28;20122;-78
2022/09/13 05:41:57;;;;;;;1.13;1.00;;;;;;;;;;10269547;28;20051;-78
2022/09/13 05:47:01;;;;;;;1.95;1.00;;;;;;;;;;10286397;28;20039;-79
2022/09/13 05:52:04;;;;;;;1.73;1.25;;;;;;;;;;10268994;28;20038;-78
2022/09/13 05:57:11;;;;;;;1.00;0.90;;;;;;;;;;10269215;28;20311;-78
2022/09/13 06:02:15;;;;;;;0.90;0.85;;;;;;;;;;10269370;28;20038;-79
2022/09/13 06:07:18;;;;;;;3.15;0.90;;;;;;;;;;10268509;28;20526;-79
2022/09/13 06:12:23;;;;;;;3.15;1.33;;;;;;;;;;10268432;28;20388;-78
2022/09/13 06:17:26;;;;;;;3.97;1.25;;;;;;;;;;10277235;28;20051;-78
2022/09/13 06:22:32;;;;;;;6.28;1.30;;;;;;;;;;10286199;28;20047;-79
2022/09/13 06:27:37;;;;;;;4.90;1.17;;;;;;;;;;10260848;28;20046;-81
2022/09/13 06:32:40;;;;;;;1.27;0.88;;;;;;;;;;10278457;28;20058;-78
2022/09/13 06:37:44;;;;;;;1.63;1.10;;;;;;;;;;10268311;28;20500;-78
2022/09/13 06:42:49;;;;;;;2.58;1.13;;;;;;;;;;10269029;28;20419;-79
2022/09/13 06:47:55;;;;;;;1.40;1.17;;;;;;;;;;10267746;28;20042;-77
2022/09/13 06:52:58;;;;;;;1.80;1.03;;;;;;;;;;10268242;28;20046;-78
2022/09/13 06:58:03;;;;;;;2.13;0.75;;;;;;;;;;10268924;28;20055;-79
2022/09/13 07:03:06;;;;;;;1.10;0.80;;;;;;;;;;10294100;28;20039;-78
2022/09/13 07:08:10;;;;;;;0.88;0.88;;;;;;;;;;10279591;28;20086;-78
2022/09/13 07:13:14;;;;;;;2.00;0.95;;;;;;;;;;10296977;28;20050;-78
2022/09/13 07:18:18;;;;;;;1.10;1.00;;;;;;;;;;10296999;28;20102;-78
2022/09/13 07:23:21;;;;;;;0.90;0.77;;;;;;;;;;10280309;28;20053;-78
2022/09/13 07:28:27;;;;;;;2.95;0.68;;;;;;;;;;10279473;28;20039;-78
2022/09/13 07:33:32;;;;;;;0.90;0.70;;;;;;;;;;10279488;28;20050;-77
2022/09/13 07:38:37;;;;;;;0.85;0.80;;;;;;;;;;10288438;28;20049;-78
2022/09/13 07:43:42;;;;;;;0.90;0.68;;;;;;;;;;10295918;28;20050;-78
2022/09/13 07:48:49;;;;;;;0.88;0.68;;;;;;;;;;10295046;28;20062;-78
2022/09/13 07:53:56;;;;;;;0.98;0.80;;;;;;;;;;10279401;28;20102;-78
2022/09/13 07:59:03;;;;;;;1.02;0.90;;;;;;;;;;10277344;28;20039;-78
2022/09/13 08:04:08;;;;;;;1.17;0.95;;;;;;;;;;10277963;28;20711;-78
2022/09/13 08:09:12;;;;;;;3.33;0.80;;;;;;;;;;10294037;28;20519;-78
2022/09/13 08:14:19;;;;;;;0.63;0.63;;;;;;;;;;10295014;28;20074;-78
2022/09/13 08:19:22;;;;;;;1.10;0.65;;;;;;;;;;10276931;28;20050;-78
2022/09/13 08:24:27;;;;;;;0.63;0.57;;;;;;;;;;10277175;28;20053;-78
2022/09/13 08:29:31;;;;;;;0.90;0.55;;;;;;;;;;10294348;28;20038;-78
2022/09/13 08:34:35;;;;;;;0.60;0.60;;;;;;;;;;10294713;28;20039;-78
2022/09/13 08:39:39;;;;;;;2.95;0.70;;;;;;;;;;10280058;28;20054;-79
2022/09/13 08:44:49;;;;;;;0.65;0.52;;;;;;;;;;10279675;28;20050;-79
2022/09/13 08:50:06;;;;;;;1.23;0.80;;;;;;;;;;10278584;28;20429;-79
2022/09/13 08:55:24;;;;;;;1.25;0.52;;;;;;;;;;10278053;28;20050;-79
2022/09/13 09:00:33;;;;;;;1.38;0.50;;;;;;;;;;10278269;28;20077;-79
2022/09/13 09:05:47;;;;;;;0.60;0.60;;;;;;;;;;10270913;28;20047;-79
2022/09/13 09:10:54;;;;;;;0.47;0.47;;;;;;;;;;10277674;28;20070;-79
2022/09/13 09:16:02;;;;;;;1.52;0.60;;;;;;;;;;10292616;28;20463;-79
2022/09/13 09:21:13;;;;;;;1.10;0.57;;;;;;;;;;10291307;28;20049;-79
2022/09/13 09:26:22;;;;;;;0.50;0.50;;;;;;;;;;10275946;28;20223;-79
2022/09/13 09:31:38;;;;;;;0.60;0.40;;;;;;;;;;10275475;28;20035;-78
2022/09/13 09:36:45;;;;;;;0.52;0.52;;;;;;;;;;10267879;28;20059;-79
2022/09/13 09:41:48;;;;;;;0.70;0.57;;;;;;;;;;10274785;28;20051;-78
2022/09/13 09:47:00;;;;;;;0.85;0.68;;;;;;;;;;10291176;28;20074;-79
2022/09/13 09:52:06;;;;;;;0.50;0.50;;;;;;;;;;10275026;28;20061;-78
2022/09/13 09:57:10;;;;;;;0.57;0.57;;;;;;;;;;10291455;28;20570;-78
2022/09/13 10:02:21;;;;;;;0.70;0.50;;;;;;;;;;10290400;28;20074;-79
2022/09/13 10:07:31;;;;;;;1.08;0.50;;;;;;;;;;10273321;28;20558;-78
2022/09/13 10:12:37;;;;;;;0.65;0.60;;;;;;;;;;10273470;28;20510;-78
2022/09/13 10:17:42;;;;;;;0.60;0.50;;;;;;;;;;10265656;28;20669;-78
2022/09/13 10:23:05;;;;;;;1.65;0.73;;;;;;;;;;10272854;28;20484;-78
2022/09/13 10:28:13;;;;;;;1.77;0.57;;;;;;;;;;10290209;28;20035;-78
2022/09/13 10:33:27;;;;;;;0.88;0.60;;;;;;;;;;10271928;28;20131;-78
2022/09/13 10:38:37;;;;;;;0.45;0.43;;;;;;;;;;10271891;28;20121;-78
2022/09/13 10:43:43;;;;;;;0.55;0.55;;;;;;;;;;10271673;28;20455;-78
2022/09/13 10:48:54;;;;;;;0.70;0.30;;;;;;;;;;10289890;28;20058;-78
2022/09/13 10:54:18;;;;;;;0.40;0.40;;;;;;;;;;10274629;28;20403;-79
2022/09/13 10:59:24;;;;;;;0.32;0.32;;;;;;;;;;10276231;28;20668;-78
2022/09/13 11:04:44;;;;;;;;;;;;;;;;;;10277409;28;20043;-78
2022/09/13 11:09:55;;;;;;;0.63;0.25;;;;;;;;;;10285539;28;19957;-78
2022/09/13 11:15:07;;;;;;;0.52;0.40;;;;;;;;;;10274696;28;20066;-78
2022/09/13 11:20:29;;;;;;;0.28;0.25;;;;;;;;;;10292938;28;20035;-78
2022/09/13 11:25:45;;;;;;;0.20;0.20;;;;;;;;;;10275550;28;20039;-78
2022/09/13 11:30:55;;;;;;;;;;;;;;;;;;10286007;28;20101;-78
2022/09/13 11:36:20;;;;;;;1.02;0.20;;;;;;;;;;10292114;28;19922;-79
2022/09/13 11:41:34;;;;;;;0.13;0.13;;;;;;;;;;10273790;28;20046;-78
2022/09/13 11:46:43;;;;;;;0.70;0.57;;;;;;;;;;10286011;28;20051;-79
2022/09/13 11:51:58;;;;;;;0.60;0.50;;;;;;;;;;10296563;28;20130;-78
2022/09/13 11:57:06;;;;;;;1.00;0.43;;;;;;;;;;10280263;28;20042;-79
2022/09/13 12:02:18;;;;;;;0.50;0.30;;;;;;;;;;10297495;28;20519;-78
2022/09/13 12:07:34;;;;;;;0.30;0.30;;;;;;;;;;10279039;28;20050;-79
2022/09/13 12:12:37;;;;;;;0.45;0.17;;;;;;;;;;10279165;28;20039;-78
2022/09/13 12:17:44;;;;;;;0.28;0.28;;;;;;;;;;10278210;28;20474;-78
2022/09/13 12:22:51;;;;;;;1.92;0.60;;;;;;;;;;10278259;28;20039;-79
2022/09/13 12:28:02;;;;;;;1.02;0.40;;;;;;;;;;10294377;28;20086;-78
2022/09/13 12:33:06;;;;;;;0.60;0.40;;;;;;;;;;10276676;28;20117;-78
2022/09/13 12:38:28;;;;;;;0.95;0.52;;;;;;;;;;10276196;28;20039;-78
2022/09/13 12:44:05;;;;;;;0.68;0.50;;;;;;;;;;10275566;28;20046;-79
2022/09/13 12:49:25;;;;;;;0.90;0.60;;;;;;;;;;10271470;28;20042;-78
2022/09/13 12:54:54;;;;;;;0.55;0.40;;;;;;;;;;10292807;28;20530;-79
2022/09/13 13:00:20;;;;;;;0.85;0.47;;;;;;;;;;10286000;28;20047;-78
2022/09/13 13:05:28;;;;;;;0.75;0.30;;;;;;;;;;10280069;28;20050;-78
2022/09/13 13:10:36;;;;;;;1.02;0.25;;;;;;;;;;10276655;28;20043;-79
2022/09/13 13:16:02;;;;;;;1.25;0.40;;;;;;;;;;10278558;28;20045;-79
2022/09/13 13:21:27;;;;;;;0.75;0.30;;;;;;;;;;10277596;28;20049;-78
2022/09/13 13:26:49;;;;;;;0.47;0.30;;;;;;;;;;10294251;28;20085;-78
2022/09/13 13:32:11;;;;;;;0.40;0.30;;;;;;;;;;10288095;28;20137;-79
2022/09/13 13:37:42;;;;;;;0.40;0.20;;;;;;;;;;10275956;28;20050;-78
2022/09/13 13:42:47;;;;;;;0.93;0.30;;;;;;;;;;10231581;28;20462;-79
2022/09/13 13:48:08;;;;;;;0.20;0.15;;;;;;;;;;10293389;28;20415;-78
2022/09/13 13:53:21;;;;;;;0.30;0.22;;;;;;;;;;10291954;28;20060;-78
2022/09/13 13:58:45;;;;;;;0.93;0.25;;;;;;;;;;10274362;28;20553;-78
2022/09/13 14:04:37;;;;;;;0.10;0.10;;;;;;;;;;10268016;28;20066;-79
2022/09/13 14:09:48;;;;;;;1.25;0.40;;;;;;;;;;10243912;28;20125;-78
2022/09/13 14:15:06;;;;;;;0.57;0.20;;;;;;;;;;10274169;28;20051;-78
2022/09/13 14:20:12;;;;;;;0.75;0.20;;;;;;;;;;10289857;28;20044;-78
2022/09/13 14:25:24;;;;;;;0.95;0.28;;;;;;;;;;10273339;28;20049;-78
2022/09/13 14:30:33;;;;;;;0.57;0.52;;;;;;;;;;10290311;28;20495;-79
2022/09/13 14:35:39;;;;;;;1.10;0.40;;;;;;;;;;10289779;28;20065;-78
2022/09/13 14:40:46;;;;;;;0.93;0.50;;;;;;;;;;10271892;28;20047;-78
2022/09/13 14:45:56;;;;;;;2.92;0.60;;;;;;;;;;10289128;28;20042;-78
2022/09/13 14:51:04;;;;;;;0.43;0.40;;;;;;;;;;10271149;28;20129;-78
2022/09/13 14:56:12;;;;;;;0.40;0.35;;;;;;;;;;10288320;28;20089;-78
2022/09/13 15:01:21;;;;;;;0.50;0.22;;;;;;;;;;10271223;28;20130;-78
2022/09/13 15:06:27;;;;;;;0.75;0.28;;;;;;;;;;10270951;28;20129;-78
2022/09/13 15:11:34;;;;;;;0.45;0.30;;;;;;;;;;10287739;28;20047;-78
2022/09/13 15:16:49;;;;;;;0.25;0.20;;;;;;;;;;10262722;28;20050;-78
2022/09/13 15:21:54;;;;;;;;;;;;;;;;;;10276113;28;20053;-78
2022/09/13 15:27:06;;;;;;;0.30;0.10;;;;;;;;;;10277524;28;19922;-78
2022/09/13 15:32:22;;;;;;;0.30;0.30;;;;;;;;;;10295125;28;20043;-78
2022/09/13 15:37:33;;;;;;;;;;;;;;;;;;10279161;28;20046;-78
2022/09/13 15:42:36;;;;;;;0.20;0.20;;;;;;;;;;10298584;28;20338;-78
2022/09/13 15:47:41;;;;;;;0.40;0.30;;;;;;;;;;10297578;28;20442;-78
2022/09/13 15:52:44;;;;;;;0.98;0.20;;;;;;;;;;10279997;28;20047;-78
2022/09/13 15:57:48;;;;;;;3.10;0.43;;;;;;;;;;10298072;28;20054;-78
2022/09/13 16:02:53;;;;;;;1.15;0.28;;;;;;;;;;10279618;28;20133;-78
2022/09/13 16:07:57;;;;;;;0.65;0.20;;;;;;;;;;10280078;28;20078;-78
2022/09/13 16:13:01;;;;;;;0.65;0.40;;;;;;;;;;10296769;28;20041;-79
2022/09/13 16:18:05;;;;;;;0.30;0.30;;;;;;;;;;10296352;28;20043;-78
2022/09/13 16:23:09;;;;;;;1.23;0.30;;;;;;;;;;10278805;28;20057;-78
2022/09/13 16:28:17;;;;;;;0.55;0.20;;;;;;;;;;10277945;28;20054;-78
2022/09/13 16:33:22;;;;;;;0.50;0.20;;;;;;;;;;10278040;28;20039;-78
2022/09/13 16:38:25;;;;;;;1.00;0.40;;;;;;;;;;10288124;28;20119;-78
2022/09/13 16:43:29;;;;;;;1.58;0.47;;;;;;;;;;10278308;28;20545;-78
2022/09/13 16:48:33;;;;;;;0.30;0.30;;;;;;;;;;10293943;28;20054;-78
2022/09/13 16:53:39;;;;;;;0.80;0.30;;;;;;;;;;10268845;28;20050;-78
2022/09/13 16:58:45;;;;;;;0.82;0.40;;;;;;;;;;10294206;28;20053;-78
2022/09/13 17:03:50;;;;;;;0.50;0.50;;;;;;;;;;10293749;28;20051;-79
2022/09/13 17:08:59;;;;;;;2.83;0.52;;;;;;;;;;10293650;28;20043;-79
2022/09/13 17:14:05;;;;;;;2.00;0.43;;;;;;;;;;10293589;28;20051;-78
2022/09/13 17:19:14;;;;;;;1.17;0.30;;;;;;;;;;10276055;28;20696;-79
2022/09/13 17:24:18;;;;;;;2.72;0.43;;;;;;;;;;10275309;28;20287;-79
2022/09/13 17:29:21;;;;;;;1.33;0.43;;;;;;;;;;10291712;28;20046;-79
2022/09/13 17:34:26;;;;;;;3.33;0.40;;;;;;;;;;10292482;28;20077;-79
2022/09/13 17:39:31;;;;;;;2.05;1.40;;;;;;;;;;10274278;28;20043;-79
2022/09/13 17:44:35;;;;;;;1.60;1.00;;;;;;;;;;10290470;28;20041;-79
2022/09/13 17:49:40;;;;;;;1.20;0.93;;;;;;;;;;10265708;28;20051;-79
2022/09/13 17:54:45;;;;;;;0.43;0.37;;;;;;;;;;10291385;28;20051;-79
2022/09/13 17:59:51;;;;;;;1.90;0.50;;;;;;;;;;10290662;28;20525;-79
2022/09/13 18:04:55;;;;;;;0.63;0.43;;;;;;;;;;10294502;28;20137;-79
2022/09/13 18:09:59;;;;;;;0.82;0.40;;;;;;;;;;10294630;28;20633;-79
2022/09/13 18:15:02;;;;;;;0.73;0.50;;;;;;;;;;10294575;28;20088;-79
2022/09/13 18:20:08;;;;;;;1.08;0.40;;;;;;;;;;10275779;28;20515;-79
2022/09/13 18:25:11;;;;;;;0.50;0.47;;;;;;;;;;10293452;28;20136;-79
2022/09/13 18:30:15;;;;;;;1.33;0.47;;;;;;;;;;10290713;28;20039;-78
2022/09/13 18:35:20;;;;;;;1.08;0.85;;;;;;;;;;10292279;28;20529;-79
2022/09/13 18:40:23;;;;;;;0.60;0.40;;;;;;;;;;10266828;28;20129;-79
2022/09/13 18:45:26;;;;;;;0.52;0.40;;;;;;;;;;10291194;28;20054;-79
2022/09/13 18:50:31;;;;;;;1.55;0.60;;;;;;;;;;10291364;28;20137;-79
2022/09/13 18:55:37;;;;;;;0.77;0.43;;;;;;;;;;10288010;28;20039;-78
2022/09/13 19:00:42;;;;;;;0.32;0.30;;;;;;;;;;10281143;28;20055;-78
2022/09/13 19:05:47;;;;;;;0.77;0.40;;;;;;;;;;10281031;28;20042;-79
2022/09/13 19:10:50;;;;;;;0.40;0.40;;;;;;;;;;10278962;28;20062;-78
2022/09/13 19:16:00;;;;;;;1.50;0.98;;;;;;;;;;10278706;28;20122;-78
2022/09/13 19:21:07;;;;;;;0.98;0.73;;;;;;;;;;10296346;28;20035;-78
2022/09/13 19:26:12;;;;;;;1.23;0.70;;;;;;;;;;10296152;28;20046;-78
2022/09/13 19:31:15;;;;;;;1.73;0.60;;;;;;;;;;10294999;28;20130;-78
2022/09/13 19:36:22;;;;;;;1.25;0.60;;;;;;;;;;10295499;28;20042;-78
2022/09/13 19:41:28;;;;;;;0.30;0.30;;;;;;;;;;10295614;28;20121;-78
2022/09/13 19:46:32;;;;;;;;;;;;;;;;;;10277599;28;20050;-78
2022/09/13 19:51:38;;;;;;;2.45;0.50;;;;;;;;;;10286281;28;19953;-78
2022/09/13 19:56:43;;;;;;;1.33;0.60;;;;;;;;;;10277477;28;20129;-78
2022/09/13 20:01:47;;;;;;;1.27;0.40;;;;;;;;;;10278375;28;20049;-78
2022/09/13 20:06:52;;;;;;;1.17;0.80;;;;;;;;;;10276941;28;20110;-78
2022/09/13 20:11:59;;;;;;;1.67;0.70;;;;;;;;;;10277554;28;20121;-78
2022/09/13 20:17:03;;;;;;;1.10;0.50;;;;;;;;;;10278186;28;20035;-78
2022/09/13 20:22:08;;;;;;;0.85;0.52;;;;;;;;;;10297026;28;20070;-78
2022/09/13 20:27:12;;;;;;;1.17;0.50;;;;;;;;;;10278884;28;20070;-78
2022/09/13 20:32:20;;;;;;;1.02;0.43;;;;;;;;;;10295700;28;20031;-78
2022/09/13 20:37:26;;;;;;;0.73;0.50;;;;;;;;;;10277627;28;20062;-78
2022/09/13 20:42:29;;;;;;;2.05;0.50;;;;;;;;;;10293189;28;20043;-78
2022/09/13 20:47:33;;;;;;;2.72;0.70;;;;;;;;;;10293586;28;20078;-78
2022/09/13 20:52:39;;;;;;;1.15;0.57;;;;;;;;;;10284826;28;20046;-77
2022/09/13 20:57:42;;;;;;;0.82;0.60;;;;;;;;;;10275386;28;20081;-78
2022/09/13 21:02:46;;;;;;;1.02;0.60;;;;;;;;;;10274980;28;20069;-78
2022/09/13 21:13:16;;;;;;;0.83;0.60;;;;;;;;;;10291434;28;20049;-78
2022/09/13 21:18:19;;;;;;;0.57;0.53;;;;;;;;;;10291251;28;20122;-78
2022/09/13 21:23:25;;;;;;;0.60;0.50;;;;;;;;;;10274541;28;20039;-78
2022/09/13 21:28:31;;;;;;;0.53;0.43;;;;;;;;;;10275283;28;20054;-78
2022/09/13 21:33:35;;;;;;;0.70;0.50;;;;;;;;;;10292221;28;20092;-78
2022/09/13 21:38:40;;;;;;;0.60;0.40;;;;;;;;;;10266677;28;20047;-78
2022/09/13 21:43:44;;;;;;;0.80;0.50;;;;;;;;;;10291008;28;20078;-78
2022/09/13 21:48:50;;;;;;;0.80;0.40;;;;;;;;;;10289517;28;20428;-78
2022/09/13 21:53:55;;;;;;;;;;;;;;;;;;10273074;28;20763;-78
2022/09/13 21:59:03;;;;;;;0.70;0.43;;;;;;;;;;10288856;28;19928;-78
2022/09/13 22:04:07;;;;;;;1.85;0.60;;;;;;;;;;10289339;28;20050;-77
2022/09/13 22:09:14;;;;;;;0.47;0.43;;;;;;;;;;10271492;28;20051;-77
2022/09/13 22:14:20;;;;;;;1.33;0.40;;;;;;;;;;10288842;28;20089;-78
2022/09/13 22:19:26;;;;;;;1.42;0.52;;;;;;;;;;10287802;28;20043;-78
2022/09/13 22:24:34;;;;;;;0.65;0.65;;;;;;;;;;10288498;28;20053;-78
2022/09/13 22:29:40;;;;;;;1.35;0.80;;;;;;;;;;10286996;28;20054;-78
2022/09/13 22:34:43;;;;;;;0.45;0.45;;;;;;;;;;10290041;28;20051;-78
2022/09/13 22:39:48;;;;;;;1.75;0.57;;;;;;;;;;10272019;28;20049;-78
2022/09/13 22:44:51;;;;;;;0.63;0.50;;;;;;;;;;10289113;28;20481;-78
2022/09/13 22:49:54;;;;;;;1.77;0.40;;;;;;;;;;10272478;28;20047;-78
2022/09/13 22:54:59;;;;;;;1.52;0.50;;;;;;;;;;10272802;28;20047;-78
2022/09/13 23:00:03;;;;;;;0.40;0.40;;;;;;;;;;10272574;28;20058;-78
2022/09/13 23:05:07;;;;;;;1.23;0.40;;;;;;;;;;10289233;28;20042;-78
2022/09/13 23:10:11;;;;;;;0.68;0.50;;;;;;;;;;10272234;28;20046;-78
2022/09/13 23:15:15;;;;;;;0.80;0.60;;;;;;;;;;10271760;28;20047;-78
2022/09/13 23:20:19;;;;;;;0.75;0.50;;;;;;;;;;10271929;28;20043;-78
2022/09/13 23:25:23;;;;;;;1.60;0.40;;;;;;;;;;10270884;28;20047;-78
2022/09/13 23:30:26;;;;;;;0.68;0.40;;;;;;;;;;10287711;28;20050;-78
2022/09/13 23:35:30;;;;;;;1.70;0.63;;;;;;;;;;10288078;28;20526;-78
2022/09/13 23:40:35;;;;;;;1.08;0.57;;;;;;;;;;10286976;28;20430;-78
2022/09/13 23:45:38;;;;;;;1.85;0.63;;;;;;;;;;10277190;28;20050;-78
2022/09/13 23:50:42;;;;;;;0.98;0.50;;;;;;;;;;10294549;28;20549;-78
2022/09/13 23:55:47;;;;;;;0.35;0.35;;;;;;;;;;10276816;28;20062;-78
